Time;durP1;ratioP1;P1;durP2;ratioP2;P2;SDS_P1;SDS_P2;PMS_P1;PMS_P2;Temp;Humidity;BMP_temperature;BMP_pressure;BME280_temperature;BME280_humidity;BME280_pressure;Samples;Min_cycle;Max_cycle;Signal;HPM_P1;HPM_P2
2021/08/03 00:00:18;;;;;;;;;;;;;;;;;;2072547;28;99916;-25
2021/08/03 00:01:23;;;;;;;;;;;;;;;;;;2064873;28;100087;-23
2021/08/03 00:02:26;;;;;;;;;;;;;;;;;;2057499;28;100041;-21
2021/08/03 00:03:31;;;;;;;;;;;;;;;;;;2057754;28;100012;-28
2021/08/03 00:04:36;;;;;;;;;;;;;;;;;;2074379;28;100005;-18
2021/08/03 00:05:45;;;;;;;;;;;;;;;;;;2067376;28;100367;-20
2021/08/03 00:06:56;;;;;;;;;;;;;;;;;;2041962;28;99975;-21
2021/08/03 00:08:02;;;;;;;;;;;;;;;;;;2041537;28;100109;-24
2021/08/03 00:09:05;;;;;;;;;;;;;;;;;;2035214;28;100496;-22
2021/08/03 00:10:08;;;;;;;;;;;;;;;;;;2040325;28;100043;-22
2021/08/03 00:11:09;;;;;;;;;;;;;;;;;;2040871;28;100191;-21
2021/08/03 00:12:12;;;;;;;;;;;;;;;;;;2064854;28;100049;-23
2021/08/03 00:13:13;;;;;;;;;;;;;;;;;;2073383;28;100004;-22
2021/08/03 00:14:14;;;;;;;;;;;;;;;;;;2056486;28;100152;-22
2021/08/03 00:15:17;;;;;;;;;;;;;;;;;;2048672;28;100423;-23
2021/08/03 00:16:19;;;;;;;;;;;;;;;;;;2056849;28;100032;-21
2021/08/03 00:17:23;;;;;;;;;;;;;;;;;;2065515;28;100073;-21
2021/08/03 00:18:24;;;;;;;;;;;;;;;;;;2074024;28;100209;-21
2021/08/03 00:19:25;;;;;;;;;;;;;;;;;;2074058;28;99990;-28
2021/08/03 00:20:26;;;;;;;;;;;;;;;;;;2073944;28;100339;-24
2021/08/03 00:21:27;;;;;;;;;;;;;;;;;;2074155;28;99906;-24
2021/08/03 00:22:28;;;;;;;;;;;;;;;;;;2073918;28;100076;-23
2021/08/03 00:23:29;;;;;;;;;;;;;;;;;;2048871;28;99974;-24
2021/08/03 00:24:30;;;;;;;;;;;;;;;;;;2040714;28;100089;-22
2021/08/03 00:25:31;;;;;;;;;;;;;;;;;;2065180;28;100415;-24
2021/08/03 00:26:32;;;;;;;;;;;;;;;;;;2073756;28;100556;-21
2021/08/03 00:27:35;;;;;;;;;;;;;;;;;;2074248;28;99995;-22
2021/08/03 00:28:36;;;;;;;;;;;;;;;;;;2073396;28;99943;-24
2021/08/03 00:29:37;;;;;;;;;;;;;;;;;;2065420;28;99925;-24
2021/08/03 00:30:38;;;;;;;;;;;;;;;;;;2064908;28;100114;-25
2021/08/03 00:31:39;;;;;;;;;;;;;;;;;;2065243;28;100388;-23
2021/08/03 08:27:54;;;;;;;8.80;5.00;;;;;;;;;;2081586;28;99919;-21
2021/08/03 08:28:55;;;;;;;8.85;5.15;;;;;;;;;;2080530;27;99945;-22
2021/08/03 08:29:56;;;;;;;;;;;;;;;;;;2080610;27;99978;-20
2021/08/03 08:30:57;;;;;;;6.28;4.57;;;;;;;;;;2080078;28;99928;-21
2021/08/03 08:31:58;;;;;;;8.07;4.38;;;;;;;;;;2080105;28;100012;-20
2021/08/03 08:32:59;;;;;;;16.17;4.80;;;;;;;;;;2080597;27;99884;-21
2021/08/03 08:34:00;;;;;;;;;;;;;;;;;;2080785;27;99916;-20
2021/08/03 08:35:02;;;;;;;7.32;4.95;;;;;;;;;;2080862;27;100063;-22
2021/08/03 08:36:03;;;;;;;6.72;4.90;;;;;;;;;;2080716;27;99891;-20
2021/08/03 08:37:03;;;;;;;;;;;;;;;;;;2081155;27;100090;-23
2021/08/03 08:38:05;;;;;;;8.15;4.85;;;;;;;;;;2080546;27;99962;-20
2021/08/03 08:39:07;;;;;;;6.65;4.53;;;;;;;;;;2080561;27;99980;-22
2021/08/03 08:40:09;;;;;;;10.80;4.70;;;;;;;;;;2080558;28;99974;-22
2021/08/03 08:41:12;;;;;;;11.27;5.22;;;;;;;;;;2080584;27;99934;-19
2021/08/03 08:42:17;;;;;;;8.15;4.85;;;;;;;;;;2080543;27;100029;-23
2021/08/03 08:43:19;;;;;;;10.30;5.05;;;;;;;;;;2080180;28;100156;-23
2021/08/03 08:44:20;;;;;;;7.47;5.00;;;;;;;;;;2079924;28;100083;-22
2021/08/03 08:45:20;;;;;;;;;;;;;;;;;;2071818;28;101566;-20
2021/08/03 08:46:21;;;;;;;8.57;4.78;;;;;;;;;;2071619;28;99964;-23
2021/08/03 08:47:24;;;;;;;9.02;5.13;;;;;;;;;;2080356;28;100047;-23
2021/08/03 08:48:26;;;;;;;7.70;4.63;;;;;;;;;;2080578;27;99812;-19
2021/08/03 08:49:28;;;;;;;7.90;4.47;;;;;;;;;;2080939;27;100101;-22
2021/08/03 08:50:29;;;;;;;7.88;4.72;;;;;;;;;;2079838;28;100145;-21
2021/08/03 08:51:30;;;;;;;;;;;;;;;;;;2080393;28;99981;-23
2021/08/03 08:52:33;;;;;;;6.85;4.45;;;;;;;;;;2080488;27;100105;-22
2021/08/03 08:53:34;;;;;;;7.28;4.50;;;;;;;;;;2080626;27;99912;-22
2021/08/03 08:54:35;;;;;;;6.93;4.45;;;;;;;;;;2080772;28;99922;-21
2021/08/03 08:55:36;;;;;;;;;;;;;;;;;;2080935;27;99919;-22
2021/08/03 08:56:37;;;;;;;9.00;4.45;;;;;;;;;;2080949;27;99967;-21
2021/08/03 08:57:39;;;;;;;;;;;;;;;;;;2080822;27;99971;-22
2021/08/03 08:58:43;;;;;;;9.45;4.47;;;;;;;;;;2080789;28;100255;-22
2021/08/03 08:59:44;;;;;;;6.38;4.50;;;;;;;;;;2080091;28;99962;-22
2021/08/03 09:00:44;;;;;;;;;;;;;;;;;;2080841;27;100260;-22
2021/08/03 09:01:45;;;;;;;10.68;5.50;;;;;;;;;;2080590;28;99974;-21
2021/08/03 09:02:47;;;;;;;;;;;;;;;;;;2081146;27;100594;-22
2021/08/03 09:03:48;;;;;;;7.30;4.88;;;;;;;;;;2080485;27;100424;-21
2021/08/03 09:04:57;;;;;;;8.57;5.03;;;;;;;;;;2080745;28;99993;-19
2021/08/03 09:06:06;;;;;;;7.78;5.00;;;;;;;;;;2080628;27;100042;-23
2021/08/03 09:07:08;;;;;;;10.10;4.93;;;;;;;;;;2080438;27;99951;-22
2021/08/03 09:08:10;;;;;;;8.95;4.53;;;;;;;;;;2096581;27;100046;-20
2021/08/03 09:09:15;;;;;;;7.82;4.78;;;;;;;;;;2087961;27;100137;-23
2021/08/03 09:10:47;;;;;;;9.00;5.03;;;;;;;;;;2071741;28;99919;-20
2021/08/03 09:11:48;;;;;;;7.47;4.82;;;;;;;;;;2071076;28;100116;-19
2021/08/03 09:12:56;;;;;;;;;;;;;;;;;;2080059;28;100257;-19
2021/08/03 09:14:00;;;;;;;8.38;4.75;;;;;;;;;;2079236;28;100106;-22
2021/08/03 09:15:01;;;;;;;9.30;5.07;;;;;;;;;;2080025;28;99976;-22
2021/08/03 09:16:04;;;;;;;9.43;4.53;;;;;;;;;;2079580;27;100001;-21
2021/08/03 09:17:06;;;;;;;9.68;4.63;;;;;;;;;;2079979;28;99969;-22
2021/08/03 09:18:11;;;;;;;14.40;5.15;;;;;;;;;;2080548;27;99972;-22
2021/08/03 09:19:29;;;;;;;6.18;4.55;;;;;;;;;;2080857;28;100145;-21
2021/08/03 09:20:34;;;;;;;10.82;4.90;;;;;;;;;;2079870;28;100131;-19
2021/08/03 09:21:35;;;;;;;8.02;4.70;;;;;;;;;;2080176;28;100019;-23
2021/08/03 09:22:36;;;;;;;;;;;;;;;;;;2080577;28;100097;-19
2021/08/03 09:23:42;;;;;;;8.13;4.35;;;;;;;;;;2080757;28;99970;-20
2021/08/03 09:24:46;;;;;;;5.43;4.47;;;;;;;;;;2080385;27;99964;-22
2021/08/03 09:25:57;;;;;;;12.82;5.38;;;;;;;;;;2080403;27;100019;-22
2021/08/03 09:26:57;;;;;;;6.50;3.92;;;;;;;;;;2080354;27;100100;-22
2021/08/03 09:28:02;;;;;;;;;;;;;;;;;;2080730;27;100115;-23
2021/08/03 09:29:07;;;;;;;10.00;5.25;;;;;;;;;;2074750;28;100180;-23
2021/08/03 09:30:17;;;;;;;7.03;4.28;;;;;;;;;;2074899;28;99939;-20
2021/08/03 09:31:21;;;;;;;8.13;4.22;;;;;;;;;;2074756;28;100009;-20
2021/08/03 09:32:33;;;;;;;8.20;4.82;;;;;;;;;;2074797;28;100154;-22
2021/08/03 09:33:46;;;;;;;9.20;4.90;;;;;;;;;;2074099;28;99995;-23
2021/08/03 09:35:13;;;;;;;7.90;4.85;;;;;;;;;;2075844;28;100130;-22
2021/08/03 09:36:14;;;;;;;8.68;5.07;;;;;;;;;;2079198;28;99875;-19
2021/08/03 09:37:16;;;;;;;9.55;5.03;;;;;;;;;;2074998;28;99902;-20
2021/08/03 09:38:19;;;;;;;10.25;4.50;;;;;;;;;;2074997;28;100095;-22
2021/08/03 09:39:45;;;;;;;7.38;4.68;;;;;;;;;;2074249;28;100080;-23
2021/08/03 09:40:48;;;;;;;7.13;4.63;;;;;;;;;;2068084;28;100120;-21
2021/08/03 09:41:49;;;;;;;10.45;4.80;;;;;;;;;;2075108;28;100007;-22
2021/08/03 09:42:59;;;;;;;;;;;;;;;;;;2074558;28;100266;-22
2021/08/03 09:44:12;;;;;;;10.40;4.90;;;;;;;;;;2074135;28;99961;-20
2021/08/03 09:45:13;;;;;;;9.52;4.57;;;;;;;;;;2074416;28;99939;-20
2021/08/03 09:46:20;;;;;;;7.97;4.63;;;;;;;;;;2074727;28;99911;-20
2021/08/03 09:47:22;;;;;;;9.07;4.43;;;;;;;;;;2074643;28;100591;-20
2021/08/03 09:48:25;;;;;;;7.15;5.10;;;;;;;;;;2075180;28;99897;-20
2021/08/03 09:49:46;;;;;;;11.23;4.78;;;;;;;;;;2074793;28;100032;-19
2021/08/03 09:51:06;;;;;;;8.82;4.80;;;;;;;;;;2074827;28;99991;-19
2021/08/03 09:52:12;;;;;;;13.32;5.40;;;;;;;;;;2074847;28;99992;-20
2021/08/03 09:53:45;;;;;;;5.65;4.20;;;;;;;;;;2074822;28;99978;-19
2021/08/03 09:54:48;;;;;;;8.05;4.75;;;;;;;;;;2074353;28;100092;-22
2021/08/03 09:55:52;;;;;;;10.23;4.30;;;;;;;;;;2074668;28;100283;-22
2021/08/03 09:56:53;;;;;;;10.38;4.85;;;;;;;;;;2074497;28;100419;-22
2021/08/03 09:58:04;;;;;;;;;;;;;;;;;;2074646;28;100361;-20
2021/08/03 09:59:06;;;;;;;8.95;4.80;;;;;;;;;;2074230;28;100511;-20
2021/08/03 10:00:27;;;;;;;10.27;4.32;;;;;;;;;;2074258;28;100033;-19
2021/08/03 10:01:30;;;;;;;9.52;4.93;;;;;;;;;;2074477;28;100094;-19
2021/08/03 10:02:30;;;;;;;9.05;4.78;;;;;;;;;;2074918;28;100304;-22
2021/08/03 10:03:31;;;;;;;;;;;;;;;;;;2074557;28;99955;-20
2021/08/03 10:04:32;;;;;;;8.15;4.15;;;;;;;;;;2074324;28;99871;-19
2021/08/03 10:05:34;;;;;;;9.75;4.93;;;;;;;;;;2074387;28;100018;-20
2021/08/03 10:06:37;;;;;;;10.25;5.25;;;;;;;;;;2074279;28;99896;-21
2021/08/03 10:07:37;;;;;;;14.43;5.03;;;;;;;;;;2073731;28;100468;-21
2021/08/03 10:08:38;;;;;;;;;;;;;;;;;;2066391;28;99972;-22
2021/08/03 10:09:41;;;;;;;7.97;4.78;;;;;;;;;;2074008;28;100001;-19
2021/08/03 10:10:44;;;;;;;6.28;4.45;;;;;;;;;;2074837;28;99820;-18
2021/08/03 10:11:45;;;;;;;8.60;4.93;;;;;;;;;;2074286;28;99857;-21
2021/08/03 10:12:46;;;;;;;10.80;5.25;;;;;;;;;;2074857;28;100013;-19
2021/08/03 10:13:47;;;;;;;9.20;5.10;;;;;;;;;;2082548;28;100069;-22
2021/08/03 10:14:48;;;;;;;10.43;5.40;;;;;;;;;;2073434;28;100029;-19
2021/08/03 10:15:49;;;;;;;11.25;4.60;;;;;;;;;;2065273;28;100440;-21
2021/08/03 10:16:53;;;;;;;;;;;;;;;;;;2065327;28;100079;-21
2021/08/03 10:17:54;;;;;;;9.13;4.60;;;;;;;;;;2065776;28;99876;-18
2021/08/03 10:19:00;;;;;;;9.23;4.57;;;;;;;;;;2073608;28;99968;-19
2021/08/03 10:20:02;;;;;;;10.85;4.95;;;;;;;;;;2080865;28;100065;-21
2021/08/03 10:21:06;;;;;;;11.20;4.80;;;;;;;;;;2073317;28;100100;-20
2021/08/03 10:22:29;;;;;;;11.38;4.55;;;;;;;;;;2073453;28;100520;-18
2021/08/03 10:23:34;;;;;;;9.93;4.88;;;;;;;;;;2073888;28;99902;-21
2021/08/03 10:24:49;;;;;;;9.13;4.70;;;;;;;;;;2074042;28;100218;-19
2021/08/03 10:25:50;;;;;;;9.05;4.80;;;;;;;;;;2074173;28;100082;-21
2021/08/03 10:27:10;;;;;;;9.40;4.80;;;;;;;;;;2073744;28;99966;-19
2021/08/03 10:28:19;;;;;;;12.23;4.70;;;;;;;;;;2073886;28;100253;-21
2021/08/03 10:29:25;;;;;;;9.10;4.93;;;;;;;;;;2073245;28;100137;-19
2021/08/03 10:30:29;;;;;;;12.13;5.50;;;;;;;;;;2073255;28;100089;-22
2021/08/03 10:31:40;;;;;;;7.45;4.57;;;;;;;;;;2073200;28;100109;-20
2021/08/03 10:32:44;;;;;;;11.50;5.40;;;;;;;;;;2073534;28;100017;-18
2021/08/03 10:33:46;;;;;;;12.27;5.30;;;;;;;;;;2074353;28;99982;-20
2021/08/03 10:34:48;;;;;;;12.35;5.50;;;;;;;;;;2073912;28;100394;-21
2021/08/03 10:35:49;;;;;;;12.70;5.00;;;;;;;;;;2074198;28;99868;-18
2021/08/03 10:36:50;;;;;;;10.73;4.97;;;;;;;;;;2073976;28;100035;-18
2021/08/03 10:37:57;;;;;;;;;;;;;;;;;;2074276;28;99844;-21
2021/08/03 10:39:08;;;;;;;11.70;4.70;;;;;;;;;;2079597;28;100040;-20
2021/08/03 10:40:10;;;;;;;8.68;4.65;;;;;;;;;;2081113;27;99995;-22
2021/08/03 10:41:16;;;;;;;;;;;;;;;;;;2082227;27;100352;-22
2021/08/03 10:42:18;;;;;;;11.10;4.53;;;;;;;;;;2079531;28;99979;-20
2021/08/03 10:43:22;;;;;;;11.95;4.78;;;;;;;;;;2073497;28;100006;-20
2021/08/03 10:44:58;;;;;;;10.32;5.13;;;;;;;;;;2073658;28;100007;-23
2021/08/03 10:46:06;;;;;;;11.18;5.43;;;;;;;;;;2073596;28;101738;-20
2021/08/03 10:47:30;;;;;;;10.88;5.32;;;;;;;;;;2072356;28;100047;-22
2021/08/03 10:48:37;;;;;;;9.20;4.57;;;;;;;;;;2073248;28;101334;-20
2021/08/03 10:49:56;;;;;;;9.25;5.40;;;;;;;;;;2072337;28;100158;-22
2021/08/03 10:50:57;;;;;;;10.45;4.88;;;;;;;;;;2073303;28;100507;-22
2021/08/03 10:51:58;;;;;;;;;;;;;;;;;;2076703;28;99975;-22
2021/08/03 10:53:03;;;;;;;14.77;4.80;;;;;;;;;;2077755;28;100136;-18
2021/08/03 10:54:16;;;;;;;11.65;5.50;;;;;;;;;;2081220;27;99903;-18
2021/08/03 10:55:38;;;;;;;9.95;4.88;;;;;;;;;;2082124;27;99931;-18
2021/08/03 10:56:55;;;;;;;11.40;5.00;;;;;;;;;;2082019;28;100228;-19
2021/08/03 10:58:09;;;;;;;11.57;5.65;;;;;;;;;;2080677;27;99885;-19
2021/08/03 10:59:35;;;;;;;8.80;5.38;;;;;;;;;;2073304;28;100192;-18
2021/08/03 11:00:56;;;;;;;16.42;5.13;;;;;;;;;;2073545;28;99987;-18
2021/08/03 11:01:57;;;;;;;10.15;4.63;;;;;;;;;;2072362;28;100277;-18
2021/08/03 11:02:58;;;;;;;9.98;5.13;;;;;;;;;;2073115;28;99964;-19
2021/08/03 11:03:59;;;;;;;;;;;;;;;;;;2073807;28;100356;-18
2021/08/03 11:05:00;;;;;;;11.23;5.10;;;;;;;;;;2073482;28;100109;-22
2021/08/03 11:06:03;;;;;;;;;;;;;;;;;;2073967;28;100161;-20
2021/08/03 11:07:32;;;;;;;13.07;5.68;;;;;;;;;;2072797;28;100579;-19
2021/08/03 11:08:35;;;;;;;9.05;4.68;;;;;;;;;;2081061;27;100176;-19
2021/08/03 11:09:36;;;;;;;8.65;4.68;;;;;;;;;;2081127;28;100045;-21
2021/08/03 11:10:37;;;;;;;;;;;;;;;;;;2074142;28;100091;-17
2021/08/03 11:11:37;;;;;;;11.10;5.93;;;;;;;;;;2073658;28;100055;-21
2021/08/03 11:12:40;;;;;;;11.45;4.82;;;;;;;;;;2073292;28;100406;-21
2021/08/03 11:13:50;;;;;;;11.35;5.07;;;;;;;;;;2073541;28;99936;-19
2021/08/03 11:14:51;;;;;;;8.93;5.10;;;;;;;;;;2073138;28;100185;-21
2021/08/03 11:15:52;;;;;;;;;;;;;;;;;;2073673;28;99964;-20
2021/08/03 11:16:53;;;;;;;14.70;5.40;;;;;;;;;;2073222;28;99936;-21
2021/08/03 11:18:01;;;;;;;9.95;5.60;;;;;;;;;;2073724;28;99913;-21
2021/08/03 11:19:04;;;;;;;14.63;5.20;;;;;;;;;;2073502;28;100428;-19
2021/08/03 11:20:06;;;;;;;13.30;5.82;;;;;;;;;;2073429;28;100322;-20
2021/08/03 11:21:08;;;;;;;11.43;5.65;;;;;;;;;;2073352;28;100159;-21
2021/08/03 11:22:09;;;;;;;10.73;5.38;;;;;;;;;;2073699;28;100641;-17
2021/08/03 11:23:11;;;;;;;;;;;;;;;;;;2073744;28;100124;-20
2021/08/03 11:24:31;;;;;;;10.25;5.72;;;;;;;;;;2073642;28;100007;-19
2021/08/03 11:25:32;;;;;;;11.20;5.10;;;;;;;;;;2073191;28;100103;-19
2021/08/03 11:26:52;;;;;;;10.15;5.35;;;;;;;;;;2073059;28;100323;-21
2021/08/03 11:27:53;;;;;;;11.75;5.50;;;;;;;;;;2066174;28;100242;-20
2021/08/03 11:29:13;;;;;;;12.23;5.53;;;;;;;;;;2064256;28;100289;-20
2021/08/03 11:30:15;;;;;;;12.52;4.80;;;;;;;;;;2073281;28;100255;-21
2021/08/03 11:31:15;;;;;;;14.00;5.65;;;;;;;;;;2073343;28;99880;-17
2021/08/03 11:32:21;;;;;;;13.98;5.38;;;;;;;;;;2073021;27;100067;-20
2021/08/03 11:33:25;;;;;;;9.63;4.68;;;;;;;;;;2073230;28;100114;-21
2021/08/03 11:34:42;;;;;;;12.85;5.72;;;;;;;;;;2073513;28;100558;-20
2021/08/03 11:35:43;;;;;;;12.43;4.93;;;;;;;;;;2073289;28;100003;-21
2021/08/03 11:37:00;;;;;;;12.27;4.90;;;;;;;;;;2073216;28;100103;-21
2021/08/03 11:38:08;;;;;;;12.98;5.68;;;;;;;;;;2073087;28;100191;-20
2021/08/03 11:39:24;;;;;;;11.43;5.40;;;;;;;;;;2072628;28;100177;-20
2021/08/03 11:40:25;;;;;;;15.73;5.40;;;;;;;;;;2076761;28;99914;-20
2021/08/03 11:41:26;;;;;;;;;;;;;;;;;;2075950;27;100030;-22
2021/08/03 11:42:40;;;;;;;;;;;;;;;;;;2074459;27;100047;-20
2021/08/03 11:43:41;;;;;;;12.07;5.75;;;;;;;;;;2078012;28;100053;-22
2021/08/03 11:44:43;;;;;;;;;;;;;;;;;;2082297;28;99859;-21
2021/08/03 11:45:45;;;;;;;9.10;5.35;;;;;;;;;;2073068;28;100944;-19
2021/08/03 11:46:51;;;;;;;;;;;;;;;;;;2074079;28;99875;-19
2021/08/03 11:47:57;;;;;;;12.88;5.05;;;;;;;;;;2089018;27;99960;-23
2021/08/03 11:49:03;;;;;;;10.35;5.25;;;;;;;;;;2087934;27;100091;-23
2021/08/03 11:50:04;;;;;;;10.00;5.50;;;;;;;;;;2072620;28;99955;-20
2021/08/03 11:51:14;;;;;;;9.00;5.38;;;;;;;;;;2072348;28;100156;-22
2021/08/03 11:52:18;;;;;;;20.60;5.78;;;;;;;;;;2064960;28;100051;-22
2021/08/03 11:53:21;;;;;;;12.70;5.68;;;;;;;;;;2072869;28;101944;-23
2021/08/03 11:54:23;;;;;;;10.20;5.80;;;;;;;;;;2055890;28;100317;-20
2021/08/03 11:55:23;;;;;;;12.05;5.40;;;;;;;;;;2046616;28;100088;-20
2021/08/03 11:56:30;;;;;;;;;;;;;;;;;;2058695;28;100197;-23
2021/08/03 11:57:41;;;;;;;10.13;5.22;;;;;;;;;;2075183;28;100500;-21
2021/08/03 11:58:42;;;;;;;11.80;5.68;;;;;;;;;;2081899;27;99945;-23
2021/08/03 11:59:43;;;;;;;14.07;6.18;;;;;;;;;;2081715;27;99908;-20
2021/08/03 12:00:44;;;;;;;;;;;;;;;;;;2082297;27;99829;-21
2021/08/03 12:01:52;;;;;;;10.77;5.35;;;;;;;;;;2075645;27;99847;-22
2021/08/03 12:02:55;;;;;;;12.02;5.80;;;;;;;;;;2080783;27;100476;-17
2021/08/03 12:03:56;;;;;;;11.02;5.65;;;;;;;;;;2072480;28;100212;-22
2021/08/03 12:05:32;;;;;;;;;;;;;;;;;;2074357;28;99979;-20
2021/08/03 12:06:33;;;;;;;18.95;8.07;;;;;;;;;;2046406;28;100042;-21
2021/08/03 12:07:34;;;;;;;;;;;;;;;;;;2066765;28;100089;-20
2021/08/03 12:08:39;;;;;;;15.70;7.25;;;;;;;;;;2073736;28;99871;-19
2021/08/03 12:09:42;;;;;;;14.75;5.90;;;;;;;;;;2073812;28;99974;-21
2021/08/03 12:10:46;;;;;;;9.90;6.40;;;;;;;;;;2073550;28;100873;-21
2021/08/03 12:12:00;;;;;;;12.50;6.63;;;;;;;;;;2073339;28;99998;-19
2021/08/03 12:13:02;;;;;;;11.52;5.88;;;;;;;;;;2072541;28;101520;-21
2021/08/03 12:14:21;;;;;;;11.82;6.45;;;;;;;;;;2073211;28;100485;-21
2021/08/03 12:15:23;;;;;;;63.97;26.17;;;;;;;;;;2073456;28;100052;-19
2021/08/03 12:16:31;;;;;;;235.98;76.78;;;;;;;;;;2073534;28;99865;-22
2021/08/03 12:17:34;;;;;;;292.95;97.97;;;;;;;;;;2073133;28;99934;-21
2021/08/03 12:18:43;;;;;;;220.45;83.13;;;;;;;;;;2072906;28;99865;-19
2021/08/03 12:19:44;;;;;;;211.98;77.78;;;;;;;;;;2072361;28;99886;-22
2021/08/03 12:20:48;;;;;;;197.95;65.88;;;;;;;;;;2072620;28;99993;-22
2021/08/03 12:21:49;;;;;;;126.43;42.67;;;;;;;;;;2073049;28;99959;-19
2021/08/03 12:22:50;;;;;;;106.93;34.88;;;;;;;;;;2072130;28;100013;-20
2021/08/03 12:24:07;;;;;;;68.47;26.63;;;;;;;;;;2072373;28;100103;-22
2021/08/03 12:25:08;;;;;;;88.18;30.20;;;;;;;;;;2072963;28;100184;-22
2021/08/03 12:26:16;;;;;;;82.95;25.77;;;;;;;;;;2072593;28;100017;-18
2021/08/03 12:27:16;;;;;;;83.80;29.75;;;;;;;;;;2072135;28;100009;-22
2021/08/03 12:28:26;;;;;;;;;;;;;;;;;;2073888;28;100344;-20
2021/08/03 12:29:33;;;;;;;65.40;23.70;;;;;;;;;;2072972;28;100061;-19
2021/08/03 12:30:38;;;;;;;77.93;26.55;;;;;;;;;;2073412;28;100222;-22
2021/08/03 12:31:43;;;;;;;74.45;26.23;;;;;;;;;;2080971;28;100594;-20
2021/08/03 12:32:45;;;;;;;69.78;22.77;;;;;;;;;;2079448;28;100140;-22
2021/08/03 12:33:48;;;;;;;62.17;23.92;;;;;;;;;;2072693;28;99989;-20
2021/08/03 12:34:49;;;;;;;62.47;21.10;;;;;;;;;;2072817;28;100082;-21
2021/08/03 12:35:59;;;;;;;;;;;;;;;;;;2073273;28;100137;-20
2021/08/03 12:37:00;;;;;;;61.25;22.40;;;;;;;;;;2072876;28;100015;-21
2021/08/03 12:38:14;;;;;;;;;;;;;;;;;;2072570;28;100045;-21
2021/08/03 12:39:19;;;;;;;57.38;20.60;;;;;;;;;;2072584;28;99852;-23
2021/08/03 12:40:33;;;;;;;56.38;19.98;;;;;;;;;;2072840;28;100048;-20
2021/08/03 12:41:35;;;;;;;60.90;21.52;;;;;;;;;;2077071;28;100094;-21
2021/08/03 12:42:48;;;;;;;59.38;22.20;;;;;;;;;;2071896;28;100463;-21
2021/08/03 12:43:49;;;;;;;59.10;21.05;;;;;;;;;;2074142;28;100182;-19
2021/08/03 12:44:51;;;;;;;;;;;;;;;;;;2081550;27;100096;-19
2021/08/03 12:45:58;;;;;;;50.88;20.83;;;;;;;;;;2081385;28;100098;-24
2021/08/03 12:47:23;;;;;;;57.30;20.40;;;;;;;;;;2081447;28;99982;-23
2021/08/03 12:48:24;;;;;;;50.45;18.40;;;;;;;;;;2081144;27;99952;-19
2021/08/03 12:49:32;;;;;;;;;;;;;;;;;;2081904;27;100160;-20
2021/08/03 12:50:53;;;;;;;55.92;20.27;;;;;;;;;;2081241;27;99903;-22
2021/08/03 12:52:05;;;;;;;55.10;20.80;;;;;;;;;;2080835;28;100242;-19
2021/08/03 12:53:07;;;;;;;54.58;21.00;;;;;;;;;;2080978;28;102035;-20
2021/08/03 12:54:12;;;;;;;;;;;;;;;;;;2082054;27;100108;-22
2021/08/03 12:55:14;;;;;;;53.65;19.33;;;;;;;;;;2081311;27;99997;-20
2021/08/03 12:57:46;;;;;;;53.97;19.00;;;;;;;;;;2074883;28;100085;-22
2021/08/03 12:58:47;;;;;;;56.75;19.48;;;;;;;;;;2080490;28;100753;-21
2021/08/03 12:59:49;;;;;;;48.33;19.08;;;;;;;;;;2080889;27;100127;-22
2021/08/03 13:00:50;;;;;;;51.50;20.35;;;;;;;;;;2081285;28;100108;-21
2021/08/03 13:01:51;;;;;;;53.88;19.70;;;;;;;;;;2073932;28;100134;-18
2021/08/03 13:02:51;;;;;;;;;;;;;;;;;;2073302;28;99884;-18
2021/08/03 13:03:53;;;;;;;50.67;18.95;;;;;;;;;;2073877;28;100183;-18
2021/08/03 13:04:54;;;;;;;47.83;19.50;;;;;;;;;;2074250;28;99911;-21
2021/08/03 13:06:02;;;;;;;;;;;;;;;;;;2074511;28;99987;-20
2021/08/03 13:07:03;;;;;;;43.65;17.77;;;;;;;;;;2073794;28;100041;-18
2021/08/03 13:08:05;;;;;;;56.63;19.23;;;;;;;;;;2074354;28;99900;-21
2021/08/03 13:09:06;;;;;;;47.78;18.52;;;;;;;;;;2073380;28;99944;-19
2021/08/03 13:10:07;;;;;;;;;;;;;;;;;;2074213;28;100424;-19
2021/08/03 13:11:09;;;;;;;49.40;18.85;;;;;;;;;;2074488;28;100231;-20
2021/08/03 13:12:12;;;;;;;43.72;18.40;;;;;;;;;;2074418;28;100070;-22
2021/08/03 13:13:14;;;;;;;44.85;17.83;;;;;;;;;;2074360;28;99981;-23
2021/08/03 13:14:15;;;;;;;40.13;17.90;;;;;;;;;;2074429;28;99904;-21
2021/08/03 13:15:17;;;;;;;48.33;17.58;;;;;;;;;;2073734;28;99962;-22
2021/08/03 13:16:18;;;;;;;48.55;19.33;;;;;;;;;;2074370;28;100107;-23
2021/08/03 13:17:22;;;;;;;41.22;17.85;;;;;;;;;;2073584;28;100014;-22
2021/08/03 13:18:23;;;;;;;46.47;18.15;;;;;;;;;;2071130;28;100166;-22
2021/08/03 13:19:31;;;;;;;44.58;17.90;;;;;;;;;;2074141;28;99987;-21
2021/08/03 13:20:32;;;;;;;46.60;18.00;;;;;;;;;;2074376;28;99909;-21
2021/08/03 13:21:34;;;;;;;45.80;17.45;;;;;;;;;;2074020;28;99889;-24
2021/08/03 13:22:35;;;;;;;56.78;18.73;;;;;;;;;;2074529;28;99839;-21
2021/08/03 13:23:36;;;;;;;52.25;18.70;;;;;;;;;;2073870;28;99956;-19
2021/08/03 13:24:36;;;;;;;;;;;;;;;;;;2075026;28;100143;-22
2021/08/03 13:25:37;;;;;;;40.55;16.02;;;;;;;;;;2074176;28;100474;-21
2021/08/03 13:26:39;;;;;;;42.60;15.45;;;;;;;;;;2074046;28;100092;-18
2021/08/03 13:27:42;;;;;;;38.10;16.00;;;;;;;;;;2056517;28;99947;-20
2021/08/03 13:28:43;;;;;;;41.30;17.08;;;;;;;;;;2049654;28;100015;-20
2021/08/03 13:29:44;;;;;;;39.08;16.80;;;;;;;;;;2073574;28;100011;-22
2021/08/03 13:30:45;;;;;;;;;;;;;;;;;;2065521;28;99920;-23
2021/08/03 13:31:47;;;;;;;;;;;;;;;;;;2057450;28;100096;-23
2021/08/03 13:32:48;;;;;;;38.80;16.38;;;;;;;;;;2065365;28;100073;-23
2021/08/03 13:33:52;;;;;;;38.47;16.02;;;;;;;;;;2072823;27;100069;-22
2021/08/03 13:34:53;;;;;;;43.67;16.50;;;;;;;;;;2082532;27;99864;-19
2021/08/03 13:35:54;;;;;;;;;;;;;;;;;;2074383;28;99868;-20
2021/08/03 13:36:55;;;;;;;37.75;14.18;;;;;;;;;;2081626;28;99844;-19
2021/08/03 13:37:56;;;;;;;;;;;;;;;;;;2082762;27;100015;-21
2021/08/03 13:38:57;;;;;;;31.70;14.07;;;;;;;;;;2082358;28;100043;-23
2021/08/03 13:39:59;;;;;;;;;;;;;;;;;;2074715;28;100012;-19
2021/08/03 13:41:00;;;;;;;40.33;14.60;;;;;;;;;;2074054;28;100128;-20
2021/08/03 13:42:02;;;;;;;36.00;15.45;;;;;;;;;;2073499;28;100326;-23
2021/08/03 13:43:03;;;;;;;39.20;15.00;;;;;;;;;;2076221;28;99936;-20
2021/08/03 13:44:04;;;;;;;;;;;;;;;;;;2082854;27;100107;-24
2021/08/03 13:45:06;;;;;;;31.77;13.43;;;;;;;;;;2082673;27;100074;-20
2021/08/03 13:46:07;;;;;;;31.10;14.18;;;;;;;;;;2079331;27;100037;-24
2021/08/03 13:47:08;;;;;;;35.13;14.75;;;;;;;;;;2078340;28;100730;-20
2021/08/03 13:48:10;;;;;;;36.75;15.40;;;;;;;;;;2065482;28;100155;-21
2021/08/03 13:49:11;;;;;;;40.00;15.02;;;;;;;;;;2073271;28;100233;-21
2021/08/03 13:50:11;;;;;;;;;;;;;;;;;;2073721;28;100686;-18
2021/08/03 13:51:12;;;;;;;36.22;14.00;;;;;;;;;;2080829;28;100268;-22
2021/08/03 13:52:14;;;;;;;;;;;;;;;;;;2089551;27;100216;-21
2021/08/03 13:53:14;;;;;;;29.70;13.10;;;;;;;;;;2074143;28;99847;-18
2021/08/03 13:54:15;;;;;;;42.58;14.23;;;;;;;;;;2074013;28;101045;-19
2021/08/03 13:55:16;;;;;;;;;;;;;;;;;;2074153;28;100324;-20
2021/08/03 13:56:17;;;;;;;30.15;13.40;;;;;;;;;;2074270;28;99973;-18
2021/08/03 13:57:19;;;;;;;33.90;13.90;;;;;;;;;;2073430;28;100109;-22
2021/08/03 13:58:20;;;;;;;32.08;13.85;;;;;;;;;;2073403;28;100151;-20
2021/08/03 13:59:21;;;;;;;;;;;;;;;;;;2065326;28;100048;-20
2021/08/03 14:00:21;;;;;;;32.45;13.35;;;;;;;;;;2073374;28;99925;-21
2021/08/03 14:01:23;;;;;;;33.50;13.27;;;;;;;;;;2073340;28;99930;-20
2021/08/03 14:02:25;;;;;;;32.05;14.30;;;;;;;;;;2073060;28;99886;-17
2021/08/03 14:03:26;;;;;;;33.20;13.75;;;;;;;;;;2073899;28;99918;-21
2021/08/03 14:04:27;;;;;;;33.53;13.55;;;;;;;;;;2073011;28;100138;-21
2021/08/03 14:05:27;;;;;;;;;;;;;;;;;;2073263;28;100116;-20
2021/08/03 14:06:28;;;;;;;32.90;12.82;;;;;;;;;;2074351;28;100113;-20
2021/08/03 14:07:29;;;;;;;31.05;13.60;;;;;;;;;;2073598;28;100222;-21
2021/08/03 14:08:30;;;;;;;31.48;13.25;;;;;;;;;;2076264;28;100285;-20
2021/08/03 14:09:33;;;;;;;28.35;13.20;;;;;;;;;;2079431;27;100100;-23
2021/08/03 14:10:34;;;;;;;32.05;13.57;;;;;;;;;;2073562;28;100628;-22
2021/08/03 14:11:34;;;;;;;;;;;;;;;;;;2074054;28;100098;-21
2021/08/03 14:12:35;;;;;;;26.83;12.25;;;;;;;;;;2074087;28;100017;-23
2021/08/03 14:13:36;;;;;;;29.10;12.25;;;;;;;;;;2072823;28;100581;-22
2021/08/03 14:14:37;;;;;;;;;;;;;;;;;;2073369;28;100481;-23
2021/08/03 14:15:38;;;;;;;31.23;13.15;;;;;;;;;;2074164;28;100054;-17
2021/08/03 14:16:39;;;;;;;30.58;12.80;;;;;;;;;;2073901;28;100063;-21
2021/08/03 14:17:40;;;;;;;;;;;;;;;;;;2074118;28;100002;-22
2021/08/03 14:18:41;;;;;;;27.75;12.45;;;;;;;;;;2073364;28;100132;-23
2021/08/03 14:19:42;;;;;;;33.42;12.60;;;;;;;;;;2072857;28;99948;-21
2021/08/03 14:20:43;;;;;;;28.02;12.75;;;;;;;;;;2073778;28;100000;-22
2021/08/03 14:21:46;;;;;;;;;;;;;;;;;;2074059;28;99975;-21
2021/08/03 14:22:47;;;;;;;31.80;12.27;;;;;;;;;;2074023;28;100014;-20
2021/08/03 14:23:48;;;;;;;34.53;13.68;;;;;;;;;;2073244;28;100059;-19
2021/08/03 14:24:49;;;;;;;;;;;;;;;;;;2073510;28;100038;-19
2021/08/03 14:25:50;;;;;;;29.88;13.40;;;;;;;;;;2074209;28;100344;-21
2021/08/03 14:26:51;;;;;;;33.35;13.05;;;;;;;;;;2073891;28;99911;-23